createdAt,value
2022-09-02T00:01:28.091Z,99.90
2022-09-02T00:04:02.517Z,99.90
2022-09-02T00:06:31.552Z,99.90
2022-09-02T00:08:59.059Z,99.90
2022-09-02T00:11:29.334Z,99.90
2022-09-02T00:13:57.291Z,99.90
2022-09-02T00:16:25.170Z,99.90
2022-09-02T00:18:53.594Z,99.90
2022-09-02T00:21:21.224Z,99.90
2022-09-02T00:23:48.769Z,99.90
2022-09-02T00:26:15.936Z,99.90
2022-09-02T00:28:51.029Z,99.90
2022-09-02T00:31:25.129Z,99.90
2022-09-02T00:33:52.193Z,99.90
2022-09-02T00:36:19.289Z,99.90
2022-09-02T00:38:46.993Z,99.90
2022-09-02T00:41:14.794Z,99.90
2022-09-02T00:43:54.137Z,99.90
2022-09-02T00:46:24.884Z,99.90
2022-09-02T00:49:14.434Z,99.90
2022-09-02T00:51:53.124Z,99.90
2022-09-02T00:54:22.841Z,99.90
2022-09-02T00:56:53.770Z,99.90
2022-09-02T00:59:38.071Z,99.90
2022-09-02T01:02:09.667Z,99.90
2022-09-02T01:04:37.283Z,99.90
2022-09-02T01:07:04.522Z,99.90
2022-09-02T01:09:33.462Z,99.90
2022-09-02T01:12:03.123Z,99.90
2022-09-02T01:14:30.355Z,99.90
2022-09-02T01:17:00.773Z,99.90
2022-09-02T01:19:33.681Z,99.90
2022-09-02T01:22:00.658Z,99.90
2022-09-02T01:24:31.661Z,99.90
2022-09-02T01:27:00.142Z,99.90
2022-09-02T01:29:28.280Z,99.90
2022-09-02T01:31:56.248Z,99.90
2022-09-02T01:34:23.583Z,99.90
2022-09-02T01:36:50.433Z,99.90
2022-09-02T01:39:17.696Z,99.90
2022-09-02T01:41:45.345Z,99.90
2022-09-02T01:44:12.831Z,99.90
2022-09-02T01:46:40.205Z,99.90
2022-09-02T01:49:07.621Z,99.90
2022-09-02T01:51:34.893Z,99.90
2022-09-02T01:54:02.948Z,99.90
2022-09-02T01:56:29.763Z,99.90
2022-09-02T01:58:59.395Z,99.90
2022-09-02T02:01:26.328Z,99.90
2022-09-02T02:03:53.417Z,99.90
2022-09-02T02:06:23.586Z,99.90
2022-09-02T02:08:52.702Z,99.90
2022-09-02T02:11:24.934Z,99.90
2022-09-02T02:13:56.962Z,99.90
2022-09-02T02:16:24.089Z,99.90
2022-09-02T02:18:51.082Z,99.90
2022-09-02T02:21:17.891Z,99.90
2022-09-02T02:23:47.008Z,99.90
2022-09-02T02:26:13.869Z,99.90
2022-09-02T02:28:41.756Z,99.90
2022-09-02T02:31:09.583Z,99.90
2022-09-02T02:33:38.392Z,99.90
2022-09-02T02:36:07.711Z,99.90
2022-09-02T02:38:36.712Z,99.90
2022-09-02T02:41:06.427Z,99.90
2022-09-02T02:43:36.172Z,99.90
2022-09-02T02:46:04.566Z,99.90
2022-09-02T02:48:47.556Z,99.90
2022-09-02T02:51:15.354Z,99.90
2022-09-02T02:53:42.575Z,99.90
2022-09-02T02:56:11.512Z,99.90
2022-09-02T02:58:38.413Z,99.90
2022-09-02T03:01:08.107Z,99.90
2022-09-02T03:03:36.087Z,99.90
2022-09-02T03:06:03.553Z,99.90
2022-09-02T03:08:30.557Z,99.90
2022-09-02T03:10:57.779Z,99.90
2022-09-02T03:13:29.378Z,99.90
2022-09-02T03:16:00.124Z,99.90
2022-09-02T03:18:27.349Z,99.90
2022-09-02T03:20:54.953Z,99.90
2022-09-02T03:23:21.947Z,99.90
2022-09-02T03:25:50.385Z,99.90
2022-09-02T03:28:28.045Z,99.90
2022-09-02T03:30:56.047Z,99.90
2022-09-02T03:33:24.059Z,99.90
2022-09-02T03:35:51.397Z,99.90
2022-09-02T03:38:18.949Z,99.90
2022-09-02T03:40:46.064Z,99.90
2022-09-02T03:43:13.631Z,99.90
2022-09-02T03:45:42.058Z,99.90
2022-09-02T03:48:14.025Z,99.90
2022-09-02T03:50:44.091Z,99.90
2022-09-02T03:53:19.865Z,99.90
2022-09-02T03:55:49.070Z,99.90
2022-09-02T03:58:18.228Z,99.90
2022-09-02T04:00:51.555Z,99.90
2022-09-02T04:03:20.588Z,99.90
2022-09-02T04:05:52.570Z,99.90
2022-09-02T04:08:22.544Z,99.90
2022-09-02T04:10:51.012Z,99.90
2022-09-02T04:13:18.818Z,99.90
2022-09-02T04:15:49.061Z,99.90
2022-09-02T04:18:18.417Z,99.90
2022-09-02T04:20:45.934Z,99.90
2022-09-02T04:23:13.973Z,99.90
2022-09-02T04:25:44.057Z,99.90
2022-09-02T04:28:13.097Z,99.90
2022-09-02T04:30:41.336Z,99.90
2022-09-02T04:33:08.399Z,99.90
2022-09-02T04:35:41.200Z,99.90
2022-09-02T04:38:08.686Z,99.90
2022-09-02T04:40:43.601Z,99.90
2022-09-02T04:43:11.919Z,99.90
2022-09-02T04:45:46.240Z,99.90
2022-09-02T04:48:16.177Z,99.90
2022-09-02T04:50:43.485Z,99.90
2022-09-02T04:53:10.775Z,99.90
2022-09-02T04:55:41.937Z,99.90
2022-09-02T04:58:11.514Z,99.90
2022-09-02T05:00:40.124Z,99.90
2022-09-02T05:03:11.756Z,99.90
2022-09-02T05:05:41.057Z,99.90
2022-09-02T05:08:11.167Z,99.90
2022-09-02T05:10:40.633Z,99.90
2022-09-02T05:13:07.468Z,99.90
2022-09-02T05:15:40.647Z,99.90
2022-09-02T05:18:07.800Z,99.90
2022-09-02T05:20:34.646Z,99.90
2022-09-02T05:23:02.385Z,99.90
2022-09-02T05:25:29.199Z,99.90
2022-09-02T05:27:56.111Z,99.90
2022-09-02T05:30:22.922Z,99.90
2022-09-02T05:32:50.239Z,99.90
2022-09-02T05:35:18.173Z,99.90
2022-09-02T05:37:45.303Z,99.90
2022-09-02T05:40:15.001Z,99.90
2022-09-02T05:42:44.052Z,99.90
2022-09-02T05:45:15.621Z,99.90
2022-09-02T05:47:44.217Z,99.90
2022-09-02T05:50:11.281Z,99.90
2022-09-02T05:52:43.009Z,99.90
2022-09-02T05:55:10.304Z,99.90
2022-09-02T05:57:39.040Z,99.90
2022-09-02T06:00:09.172Z,99.90
2022-09-02T06:02:43.867Z,99.90
2022-09-02T06:05:20.565Z,99.90
2022-09-02T06:07:54.587Z,99.90
2022-09-02T06:10:23.143Z,99.90
2022-09-02T06:12:50.591Z,99.90
2022-09-02T06:15:20.950Z,99.90
2022-09-02T06:17:48.505Z,99.90
2022-09-02T06:20:15.401Z,99.90
2022-09-02T06:22:43.783Z,99.90
2022-09-02T06:25:11.530Z,99.90
2022-09-02T06:27:38.746Z,99.90
2022-09-02T06:30:06.470Z,99.90
2022-09-02T06:32:33.967Z,99.90
2022-09-02T06:35:04.688Z,99.90
2022-09-02T06:37:34.837Z,99.90
2022-09-02T06:40:01.816Z,99.90
2022-09-02T06:42:30.890Z,99.90
2022-09-02T06:45:20.575Z,99.90
2022-09-02T06:47:48.438Z,99.90
2022-09-02T06:50:15.457Z,99.90
2022-09-02T06:52:43.364Z,99.90
2022-09-02T06:55:12.068Z,99.90
2022-09-02T06:57:40.332Z,99.90
2022-09-02T07:00:11.704Z,99.90
2022-09-02T07:02:38.888Z,99.90
2022-09-02T07:05:15.265Z,99.90
2022-09-02T07:07:46.225Z,99.90
2022-09-02T07:10:15.013Z,99.90
2022-09-02T07:12:45.811Z,99.90
2022-09-02T07:15:16.204Z,99.90
2022-09-02T07:17:43.940Z,99.90
2022-09-02T07:20:16.576Z,99.90
2022-09-02T07:25:19.777Z,99.90
2022-09-02T07:27:51.284Z,99.90
2022-09-02T07:30:18.550Z,99.90
2022-09-02T07:32:48.142Z,99.90
2022-09-02T07:35:16.426Z,99.90
2022-09-02T07:37:44.806Z,99.90
2022-09-02T07:40:13.549Z,99.90
2022-09-02T07:42:40.655Z,99.90
2022-09-02T07:45:09.080Z,99.90
2022-09-02T07:47:38.369Z,99.90
2022-09-02T07:50:17.085Z,99.90
2022-09-02T07:52:51.290Z,99.90
2022-09-02T07:55:18.386Z,99.90
2022-09-02T07:57:46.048Z,99.90
2022-09-02T08:00:14.086Z,99.90
2022-09-02T08:02:41.737Z,99.90
2022-09-02T08:05:11.557Z,99.90
2022-09-02T08:07:38.587Z,99.90
2022-09-02T08:10:10.188Z,99.90
2022-09-02T08:12:38.128Z,99.90
2022-09-02T08:15:05.627Z,99.90
2022-09-02T08:17:32.879Z,99.90
2022-09-02T08:20:00.393Z,99.90
2022-09-02T08:25:06.496Z,99.90
2022-09-02T08:27:33.823Z,99.90
2022-09-02T08:30:01.433Z,99.90
2022-09-02T08:32:29.232Z,99.90
2022-09-02T08:34:56.035Z,99.90
2022-09-02T08:37:22.824Z,99.90
2022-09-02T08:39:49.758Z,98.70
2022-09-02T08:42:28.284Z,99.40
2022-09-02T08:45:18.277Z,98.20
2022-09-02T08:47:50.704Z,97.80
2022-09-02T08:50:19.473Z,97.10
2022-09-02T08:53:07.269Z,93.10
2022-09-02T08:55:41.266Z,93.20
2022-09-02T08:58:08.138Z,93.70
2022-09-02T09:00:41.683Z,92.20
2022-09-02T09:03:35.353Z,91.10
2022-09-02T09:06:14.326Z,91.70
2022-09-02T09:09:04.952Z,91.80
2022-09-02T09:11:52.064Z,90.80
2022-09-02T09:15:03.160Z,90.00
2022-09-02T09:17:47.933Z,89.40
2022-09-02T09:20:24.931Z,90.40
2022-09-02T09:22:56.793Z,86.80
2022-09-02T09:25:29.734Z,86.60
2022-09-02T09:28:00.955Z,87.10
2022-09-02T09:30:29.125Z,83.50
2022-09-02T09:33:01.093Z,84.20
2022-09-02T09:35:46.577Z,82.90
2022-09-02T09:38:14.353Z,80.00
2022-09-02T09:40:41.175Z,80.30
2022-09-02T09:43:14.694Z,77.10
2022-09-02T09:45:47.661Z,80.00
2022-09-02T09:48:22.984Z,76.90
2022-09-02T09:51:11.158Z,76.60
2022-09-02T09:53:38.257Z,75.40
2022-09-02T09:56:18.594Z,75.40
2022-09-02T09:58:47.562Z,71.80
2022-09-02T10:01:34.445Z,69.60
2022-09-02T10:04:05.035Z,67.10
2022-09-02T10:06:44.397Z,69.80
2022-09-02T10:09:15.367Z,69.20
2022-09-02T10:12:07.644Z,69.50
2022-09-02T10:14:55.919Z,68.90
2022-09-02T10:17:37.650Z,65.10
2022-09-02T10:21:04.864Z,65.80
2022-09-02T10:23:37.645Z,63.30
2022-09-02T10:26:27.879Z,62.90
2022-09-02T10:29:32.135Z,63.70
2022-09-02T10:32:08.227Z,63.50
2022-09-02T10:34:40.136Z,62.50
2022-09-02T10:37:21.559Z,62.20
2022-09-02T10:40:03.228Z,60.30
2022-09-02T10:42:55.102Z,61.60
2022-09-02T10:45:44.912Z,60.30
2022-09-02T10:48:36.517Z,60.20
2022-09-02T10:51:21.911Z,60.60
2022-09-02T10:54:39.322Z,59.20
2022-09-02T10:57:25.277Z,60.80
2022-09-02T11:00:23.135Z,58.00
2022-09-02T11:03:07.681Z,57.80
2022-09-02T11:05:49.606Z,55.90
2022-09-02T11:08:29.645Z,59.80
2022-09-02T11:11:35.509Z,58.90
2022-09-02T11:14:11.200Z,57.10
2022-09-02T11:16:49.225Z,55.00
2022-09-02T11:19:28.932Z,55.80
2022-09-02T11:22:07.317Z,56.50
2022-09-02T11:25:00.885Z,55.90
2022-09-02T11:27:52.609Z,56.70
2022-09-02T11:30:23.211Z,55.60
2022-09-02T11:32:53.124Z,55.50
2022-09-02T11:35:28.929Z,56.20
2022-09-02T11:38:20.059Z,55.40
2022-09-02T11:44:27.032Z,55.40
2022-09-02T11:47:02.470Z,55.70
2022-09-02T11:49:46.317Z,55.00
2022-09-02T11:52:58.963Z,57.90
2022-09-02T11:55:33.292Z,55.70
2022-09-02T11:58:01.396Z,54.10
2022-09-02T12:00:32.448Z,55.30
2022-09-02T12:03:16.694Z,54.80
2022-09-02T12:06:08.121Z,56.10
2022-09-02T12:08:36.383Z,54.90
2022-09-02T12:11:06.898Z,55.90
2022-09-02T12:16:35.427Z,53.30
2022-09-02T12:19:07.514Z,54.60
2022-09-02T12:21:35.709Z,54.70
2022-09-02T12:24:10.891Z,53.00
2022-09-02T12:26:40.416Z,52.90
2022-09-02T12:29:33.226Z,53.20
2022-09-02T12:32:00.263Z,53.20
2022-09-02T12:34:28.671Z,53.20
2022-09-02T12:36:58.653Z,54.20
2022-09-02T12:39:25.779Z,53.90
2022-09-02T12:42:04.169Z,53.80
2022-09-02T12:45:24.511Z,54.80
2022-09-02T12:48:16.907Z,53.70
2022-09-02T12:51:01.626Z,54.60
2022-09-02T12:53:38.308Z,55.70
2022-09-02T12:56:15.612Z,55.00
2022-09-02T12:58:48.100Z,54.20
2022-09-02T13:01:24.400Z,54.90
2022-09-02T13:04:06.085Z,54.30
2022-09-02T13:06:50.790Z,54.70
2022-09-02T13:09:55.307Z,54.00
2022-09-02T13:12:41.576Z,54.10
2022-09-02T13:15:44.807Z,54.80
2022-09-02T13:19:01.971Z,54.70
2022-09-02T13:21:47.522Z,54.70
2022-09-02T13:24:53.083Z,56.10
2022-09-02T13:27:52.705Z,55.20
2022-09-02T13:30:55.051Z,56.70
2022-09-02T13:33:22.136Z,55.00
2022-09-02T13:35:55.800Z,55.40
2022-09-02T13:38:27.657Z,56.90
2022-09-02T13:40:55.072Z,57.40
2022-09-02T13:43:24.127Z,57.00
2022-09-02T13:45:52.165Z,54.50
2022-09-02T13:48:20.766Z,55.30
2022-09-02T13:50:57.103Z,55.50
2022-09-02T13:53:53.924Z,55.80
2022-09-02T13:56:30.593Z,55.30
2022-09-02T13:58:57.375Z,54.90
2022-09-02T14:01:34.729Z,55.10
2022-09-02T14:04:12.308Z,54.40
2022-09-02T14:06:42.492Z,55.00
2022-09-02T14:09:20.575Z,55.10
2022-09-02T14:11:48.407Z,55.20
2022-09-02T14:14:23.344Z,55.40
2022-09-02T14:17:22.863Z,56.00
2022-09-02T14:20:07.403Z,55.20
2022-09-02T14:22:37.854Z,55.60
2022-09-02T14:25:18.581Z,55.30
2022-09-02T14:28:05.435Z,55.60
2022-09-02T14:30:57.916Z,55.90
2022-09-02T14:33:46.686Z,55.30
2022-09-02T14:36:21.187Z,55.40
2022-09-02T14:39:15.409Z,55.80
2022-09-02T14:41:51.235Z,55.80
2022-09-02T14:44:32.689Z,55.80
2022-09-02T14:47:06.404Z,56.20
2022-09-02T14:49:51.570Z,58.50
2022-09-02T14:52:25.526Z,56.10
2022-09-02T14:54:54.152Z,57.50
2022-09-02T14:57:32.959Z,58.90
2022-09-02T15:00:10.621Z,57.90
2022-09-02T15:02:41.486Z,57.40
2022-09-02T15:05:14.501Z,57.10
2022-09-02T15:07:41.761Z,59.40
2022-09-02T15:10:09.858Z,58.60
2022-09-02T15:12:57.543Z,59.70
2022-09-02T15:15:24.688Z,57.70
2022-09-02T15:17:51.648Z,57.30
2022-09-02T15:20:21.885Z,58.90
2022-09-02T15:22:49.761Z,58.70
2022-09-02T15:25:16.652Z,59.00
2022-09-02T15:27:44.835Z,59.00
2022-09-02T15:30:12.238Z,59.60
2022-09-02T15:32:39.235Z,59.50
2022-09-02T15:35:07.476Z,59.00
2022-09-02T15:37:37.618Z,59.30
2022-09-02T15:40:07.227Z,59.30
2022-09-02T15:42:36.597Z,60.10
2022-09-02T15:45:08.622Z,59.00
2022-09-02T15:47:36.208Z,58.90
2022-09-02T15:50:04.402Z,59.70
2022-09-02T15:52:31.312Z,59.60
2022-09-02T15:54:59.116Z,58.90
2022-09-02T15:57:27.394Z,59.50
2022-09-02T15:59:54.192Z,59.60
2022-09-02T16:02:21.344Z,60.70
2022-09-02T16:04:49.284Z,61.90
2022-09-02T16:07:17.370Z,61.20
2022-09-02T16:09:44.360Z,61.40
2022-09-02T16:12:11.212Z,61.80
2022-09-02T16:14:38.052Z,63.40
2022-09-02T16:17:04.939Z,62.80
2022-09-02T16:19:31.786Z,63.50
2022-09-02T16:21:58.789Z,63.30
2022-09-02T16:24:25.981Z,63.30
2022-09-02T16:26:52.783Z,63.30
2022-09-02T16:29:20.097Z,63.60
2022-09-02T16:34:35.926Z,64.50
2022-09-02T16:37:03.773Z,63.80
2022-09-02T16:39:30.664Z,64.10
2022-09-02T16:41:58.225Z,63.70
2022-09-02T16:44:26.144Z,64.10
2022-09-02T16:46:54.477Z,64.60
2022-09-02T16:49:22.193Z,64.80
2022-09-02T16:51:54.008Z,64.30
2022-09-02T16:54:31.601Z,64.60
2022-09-02T16:57:00.134Z,65.30
2022-09-02T16:59:28.017Z,65.00
2022-09-02T17:01:55.874Z,65.70
2022-09-02T17:04:22.756Z,66.50
2022-09-02T17:06:50.063Z,66.50
2022-09-02T17:09:16.883Z,67.20
2022-09-02T17:11:45.250Z,67.50
2022-09-02T17:14:16.126Z,67.70
2022-09-02T17:16:48.340Z,67.50
2022-09-02T17:19:21.334Z,67.70
2022-09-02T17:21:53.474Z,68.30
2022-09-02T17:24:27.635Z,68.60
2022-09-02T17:26:56.071Z,69.10
2022-09-02T17:32:15.229Z,70.00
2022-09-02T17:34:42.248Z,69.90
2022-09-02T17:37:09.221Z,70.30
2022-09-02T17:39:36.127Z,70.50
2022-09-02T17:42:05.175Z,70.80
2022-09-02T17:44:36.186Z,70.90
2022-09-02T17:47:06.398Z,71.70
2022-09-02T17:49:36.220Z,71.90
2022-09-02T17:52:07.894Z,72.40
2022-09-02T17:54:36.075Z,72.70
2022-09-02T17:57:25.492Z,73.30
2022-09-02T18:00:08.675Z,73.50
2022-09-02T18:02:37.457Z,74.40
2022-09-02T18:05:14.112Z,74.70
2022-09-02T18:08:08.682Z,75.40
2022-09-02T18:10:44.005Z,76.20
2022-09-02T18:13:13.602Z,77.10
2022-09-02T18:16:23.094Z,77.40
2022-09-02T18:19:19.469Z,77.60
2022-09-02T18:22:11.296Z,78.30
2022-09-02T18:24:53.134Z,78.90
2022-09-02T18:27:53.233Z,79.60
2022-09-02T18:30:24.119Z,80.20
2022-09-02T18:33:06.819Z,80.50
2022-09-02T18:36:04.305Z,80.90
2022-09-02T18:38:52.739Z,80.90
2022-09-02T18:42:14.128Z,81.30
2022-09-02T18:44:56.250Z,81.80
2022-09-02T18:47:34.258Z,82.20
2022-09-02T18:50:04.691Z,82.10
2022-09-02T18:52:33.155Z,82.40
2022-09-02T18:55:00.085Z,82.80
2022-09-02T18:57:33.657Z,83.00
2022-09-02T19:00:12.561Z,83.60
2022-09-02T19:03:02.440Z,84.20
2022-09-02T19:05:32.498Z,84.80
2022-09-02T19:08:33.016Z,85.50
2022-09-02T19:11:14.270Z,86.10
2022-09-02T19:13:53.132Z,85.70
2022-09-02T19:16:27.114Z,86.20
2022-09-02T19:18:54.565Z,87.10
2022-09-02T19:21:40.622Z,87.40
2022-09-02T19:24:12.616Z,87.90
2022-09-02T19:26:43.446Z,88.40
2022-09-02T19:29:13.447Z,88.80
2022-09-02T19:31:42.225Z,89.30
2022-09-02T19:34:10.523Z,90.00
2022-09-02T19:36:42.458Z,90.40
2022-09-02T19:39:10.180Z,90.60
2022-09-02T19:41:37.356Z,90.80
2022-09-02T19:44:04.186Z,91.10
2022-09-02T19:49:17.778Z,91.40
2022-09-02T19:51:44.593Z,91.70
2022-09-02T19:54:14.300Z,92.00
2022-09-02T19:56:42.001Z,92.30
2022-09-02T19:59:09.984Z,92.50
2022-09-02T20:01:37.861Z,92.80
2022-09-02T20:04:06.405Z,93.10
2022-09-02T20:06:33.352Z,93.40
2022-09-02T20:09:00.156Z,93.40
2022-09-02T20:11:27.942Z,93.60
2022-09-02T20:13:55.888Z,93.80
2022-09-02T20:16:25.515Z,94.20
2022-09-02T20:18:53.690Z,94.30
2022-09-02T20:21:25.196Z,94.40
2022-09-02T20:23:53.829Z,94.50
2022-09-02T20:26:56.463Z,94.90
2022-09-02T20:29:31.635Z,95.00
2022-09-02T20:32:23.532Z,95.30
2022-09-02T20:35:11.051Z,95.50
2022-09-02T20:38:11.688Z,96.20
2022-09-02T20:41:01.657Z,96.60
2022-09-02T20:43:47.303Z,97.10
2022-09-02T20:46:29.478Z,97.50
2022-09-02T20:49:11.447Z,97.80
2022-09-02T20:52:00.910Z,98.10
2022-09-02T20:54:35.923Z,98.40
2022-09-02T20:57:36.799Z,98.60
2022-09-02T21:00:09.513Z,98.90
2022-09-02T21:02:45.395Z,99.50
2022-09-02T21:05:22.657Z,99.90
2022-09-02T21:07:58.871Z,99.90
2022-09-02T21:10:52.235Z,99.90
2022-09-02T21:13:42.153Z,99.90
2022-09-02T21:16:19.947Z,99.90
2022-09-02T21:18:59.042Z,99.90
2022-09-02T21:21:34.285Z,99.90
2022-09-02T21:24:06.806Z,99.90
2022-09-02T21:26:40.635Z,99.90
2022-09-02T21:29:26.139Z,99.90
2022-09-02T21:31:57.667Z,99.90
2022-09-02T21:34:35.685Z,99.90
2022-09-02T21:37:04.022Z,99.90
2022-09-02T21:39:36.287Z,99.90
2022-09-02T21:42:26.326Z,99.90
2022-09-02T21:45:26.163Z,99.90
2022-09-02T21:48:25.022Z,99.90
2022-09-02T21:51:04.792Z,99.90
2022-09-02T21:53:35.967Z,99.90
2022-09-02T21:56:14.801Z,99.90
2022-09-02T21:59:10.958Z,99.90
2022-09-02T22:02:06.216Z,99.90
2022-09-02T22:04:50.256Z,99.90
2022-09-02T22:07:33.489Z,99.90
2022-09-02T22:10:19.765Z,99.90
2022-09-02T22:12:52.612Z,99.90
2022-09-02T22:15:58.255Z,99.90
2022-09-02T22:18:51.190Z,99.90
2022-09-02T22:21:48.045Z,99.90
2022-09-02T22:24:16.747Z,99.90
2022-09-02T22:26:53.133Z,99.90
2022-09-02T22:29:54.650Z,99.90
2022-09-02T22:32:24.862Z,99.90
2022-09-02T22:35:09.441Z,99.90
2022-09-02T22:37:51.845Z,99.90
2022-09-02T22:40:22.968Z,99.90
2022-09-02T22:42:57.134Z,99.90
2022-09-02T22:45:56.198Z,99.90
2022-09-02T22:48:59.353Z,99.90
2022-09-02T22:51:54.691Z,99.90
2022-09-02T22:54:21.848Z,99.90
2022-09-02T22:57:09.488Z,99.90
2022-09-02T22:59:50.049Z,99.90
2022-09-02T23:02:30.044Z,99.90
2022-09-02T23:05:44.565Z,99.90
2022-09-02T23:08:13.430Z,99.90
2022-09-02T23:10:47.736Z,99.90
2022-09-02T23:13:20.115Z,99.90
2022-09-02T23:16:06.232Z,99.90
2022-09-02T23:18:43.760Z,99.90
2022-09-02T23:21:26.042Z,99.90
2022-09-02T23:24:04.158Z,99.90
2022-09-02T23:26:50.067Z,99.90
2022-09-02T23:29:23.221Z,99.90
2022-09-02T23:32:27.213Z,99.90
2022-09-02T23:35:12.843Z,99.90
2022-09-02T23:37:55.676Z,99.90
2022-09-02T23:40:26.483Z,99.90
2022-09-02T23:42:53.916Z,99.90
2022-09-02T23:45:21.767Z,99.90
2022-09-02T23:48:18.583Z,99.90
2022-09-02T23:51:16.082Z,99.90
2022-09-02T23:54:06.921Z,99.90
2022-09-02T23:56:52.034Z,99.90
2022-09-02T23:59:29.308Z,99.90
